Time;durP1;ratioP1;P1;durP2;ratioP2;P2;SDS_P1;SDS_P2;PMS_P1;PMS_P2;Temp;Humidity;BMP_temperature;BMP_pressure;BME280_temperature;BME280_humidity;BME280_pressure;Samples;Min_cycle;Max_cycle;Signal;HPM_P1;HPM_P2
2021/04/12 00:02:28;;;;;;;3.50;2.63;;;;;;;;;;5081324;28;20178;-69
2021/04/12 00:04:58;;;;;;;5.60;2.90;;;;;;;;;;5079046;28;20249;-70
2021/04/12 00:07:32;;;;;;;4.53;2.87;;;;;;;;;;5077412;28;20192;-70
2021/04/12 00:10:07;;;;;;;5.47;2.80;;;;;;;;;;5078292;28;20555;-69
2021/04/12 00:12:39;;;;;;;3.90;2.80;;;;;;;;;;5082928;28;20466;-69
2021/04/12 00:15:27;;;;;;;4.80;2.73;;;;;;;;;;5080748;28;20193;-70
2021/04/12 00:17:55;;;;;;;5.43;2.70;;;;;;;;;;5077457;28;20192;-69
2021/04/12 00:20:43;;;;;;;5.80;2.67;;;;;;;;;;5093028;28;20684;-69
2021/04/12 00:23:18;;;;;;;3.77;2.83;;;;;;;;;;5079986;28;20189;-69
2021/04/12 00:25:48;;;;;;;3.33;2.67;;;;;;;;;;5076474;28;20287;-69
2021/04/12 00:28:19;;;;;;;4.77;2.60;;;;;;;;;;5080577;28;20187;-70
2021/04/12 00:30:51;;;;;;;4.47;2.80;;;;;;;;;;5081909;28;20204;-68
2021/04/12 00:33:20;;;;;;;4.90;2.57;;;;;;;;;;5084835;28;20195;-69
2021/04/12 00:35:55;;;;;;;5.70;3.03;;;;;;;;;;5078443;28;21647;-69
2021/04/12 00:38:37;;;;;;;4.37;3.07;;;;;;;;;;5079579;28;20237;-69
2021/04/12 00:41:05;;;;;;;4.80;2.87;;;;;;;;;;5077655;28;20200;-69
2021/04/12 00:43:40;;;;;;;4.47;2.57;;;;;;;;;;5076401;28;20271;-69
2021/04/12 00:46:24;;;;;;;3.70;2.77;;;;;;;;;;5086500;28;20207;-69
2021/04/12 00:48:52;;;;;;;8.47;3.60;;;;;;;;;;5080639;28;20782;-69
2021/04/12 00:51:35;;;;;;;6.27;3.07;;;;;;;;;;5080798;28;20220;-69
2021/04/12 00:54:33;;;;;;;5.30;2.43;;;;;;;;;;5077587;28;20172;-69
2021/04/12 00:57:04;;;;;;;8.93;3.00;;;;;;;;;;5076015;28;20216;-68
2021/04/12 00:59:52;;;;;;;9.67;2.60;;;;;;;;;;5080919;28;20180;-69
2021/04/12 01:02:18;;;;;;;5.20;2.83;;;;;;;;;;5080454;28;20204;-70
2021/04/12 01:04:48;;;;;;;3.80;2.70;;;;;;;;;;5083959;28;20203;-69
2021/04/12 01:07:36;;;;;;;7.67;2.50;;;;;;;;;;5080061;28;20576;-69
2021/04/12 01:10:04;;;;;;;3.93;2.10;;;;;;;;;;5087418;28;20185;-69
2021/04/12 01:12:48;;;;;;;2.63;2.10;;;;;;;;;;5076124;28;20172;-68
2021/04/12 01:15:22;;;;;;;2.23;2.00;;;;;;;;;;5078110;28;20260;-68
2021/04/12 01:17:55;;;;;;;2.70;2.03;;;;;;;;;;5076749;28;20177;-69
2021/04/12 01:20:32;;;;;;;3.90;2.10;;;;;;;;;;5082506;28;20201;-68
2021/04/12 01:23:00;;;;;;;2.40;2.10;;;;;;;;;;5082740;28;20187;-70
2021/04/12 01:25:44;;;;;;;2.33;1.80;;;;;;;;;;5077594;28;20197;-70
2021/04/12 01:28:27;;;;;;;3.07;2.10;;;;;;;;;;5087680;28;20174;-69
2021/04/12 01:31:13;;;;;;;3.50;2.10;;;;;;;;;;5079268;28;20204;-68
2021/04/12 01:33:38;;;;;;;3.90;2.03;;;;;;;;;;5076631;28;20177;-69
2021/04/12 01:36:22;;;;;;;3.30;1.90;;;;;;;;;;5084382;28;20188;-68
2021/04/12 01:39:01;;;;;;;5.60;2.03;;;;;;;;;;5089201;28;20181;-68
2021/04/12 01:41:36;;;;;;;2.17;1.70;;;;;;;;;;5081899;28;20201;-69
2021/04/12 01:44:37;;;;;;;3.63;1.40;;;;;;;;;;5082528;28;20195;-68
2021/04/12 01:47:20;;;;;;;3.73;1.90;;;;;;;;;;5081093;28;20701;-68
2021/04/12 01:49:55;;;;;;;4.03;1.90;;;;;;;;;;5074628;28;20189;-68
2021/04/12 01:52:20;;;;;;;5.23;1.90;;;;;;;;;;5074671;28;20241;-68
2021/04/12 01:54:45;;;;;;;4.20;2.07;;;;;;;;;;5085270;28;20485;-69
2021/04/12 01:57:16;;;;;;;3.73;1.87;;;;;;;;;;5077730;28;20169;-68
2021/04/12 01:59:49;;;;;;;6.33;2.40;;;;;;;;;;5087345;28;20184;-69
2021/04/12 02:02:14;;;;;;;3.13;1.30;;;;;;;;;;5077130;28;20201;-69
2021/04/12 02:04:59;;;;;;;2.23;1.40;;;;;;;;;;5084072;28;20212;-69
2021/04/12 02:07:24;;;;;;;3.03;1.33;;;;;;;;;;5078788;28;20276;-69
2021/04/12 02:09:53;;;;;;;1.60;0.98;;;;;;;;;;5081409;28;20334;-69
2021/04/12 02:12:25;;;;;;;1.20;0.70;;;;;;;;;;5081312;28;20274;-69
2021/04/12 02:15:09;;;;;;;1.37;0.40;;;;;;;;;;5081285;28;20664;-68
2021/04/12 02:17:43;;;;;;;1.17;0.63;;;;;;;;;;5080167;28;20184;-69
2021/04/12 02:20:08;;;;;;;0.80;0.40;;;;;;;;;;5081328;28;20204;-69
2021/04/12 02:22:36;;;;;;;0.60;0.60;;;;;;;;;;5083836;28;20216;-68
2021/04/12 02:25:11;;;;;;;1.17;0.50;;;;;;;;;;5078801;28;20214;-68
2021/04/12 02:27:55;;;;;;;1.13;0.50;;;;;;;;;;5086730;28;20172;-68
2021/04/12 02:30:59;;;;;;;0.77;0.37;;;;;;;;;;5082409;28;20271;-68
2021/04/12 02:33:30;;;;;;;0.50;0.50;;;;;;;;;;5083960;28;20180;-67
2021/04/12 02:36:13;;;;;;;2.67;0.50;;;;;;;;;;5084370;28;20646;-69
2021/04/12 02:38:57;;;;;;;0.73;0.50;;;;;;;;;;5087787;28;20230;-69
2021/04/12 02:41:25;;;;;;;2.07;1.03;;;;;;;;;;5080978;28;20200;-68
2021/04/12 02:43:56;;;;;;;0.30;0.30;;;;;;;;;;5080006;28;20183;-68
2021/04/12 02:46:25;;;;;;;0.40;0.40;;;;;;;;;;5076052;28;20216;-69
2021/04/12 02:48:59;;;;;;;2.10;0.70;;;;;;;;;;5082751;28;20203;-68
2021/04/12 02:51:43;;;;;;;0.80;0.70;;;;;;;;;;5072907;28;20573;-68
2021/04/12 02:54:26;;;;;;;1.60;0.50;;;;;;;;;;5075851;28;20176;-68
2021/04/12 02:57:03;;;;;;;1.53;0.50;;;;;;;;;;5078921;28;20947;-69
2021/04/12 02:59:41;;;;;;;1.70;0.60;;;;;;;;;;5081326;28;20179;-68
2021/04/12 03:02:35;;;;;;;2.13;0.60;;;;;;;;;;5083678;28;20202;-68
2021/04/12 03:05:19;;;;;;;3.20;0.80;;;;;;;;;;5082495;28;20215;-68
2021/04/12 03:07:50;;;;;;;1.03;0.77;;;;;;;;;;5080818;28;20176;-68
2021/04/12 03:10:18;;;;;;;0.80;0.80;;;;;;;;;;5078685;28;20246;-68
2021/04/12 03:12:43;;;;;;;1.00;0.63;;;;;;;;;;5074426;28;20181;-68
2021/04/12 03:15:27;;;;;;;3.87;1.50;;;;;;;;;;5080636;28;20173;-69
2021/04/12 03:17:58;;;;;;;2.80;1.37;;;;;;;;;;5081255;28;20184;-69
2021/04/12 03:20:23;;;;;;;0.80;0.80;;;;;;;;;;5083920;28;20192;-69
2021/04/12 03:22:48;;;;;;;2.40;0.80;;;;;;;;;;5075580;28;20179;-67
2021/04/12 03:25:20;;;;;;;1.73;0.97;;;;;;;;;;5080471;28;20662;-68
2021/04/12 03:27:52;;;;;;;1.57;0.90;;;;;;;;;;5084280;28;20181;-68
2021/04/12 03:30:26;;;;;;;2.03;1.00;;;;;;;;;;5083866;28;20193;-68
2021/04/12 03:33:06;;;;;;;1.07;0.93;;;;;;;;;;5080074;28;20469;-69
2021/04/12 03:35:37;;;;;;;1.63;0.80;;;;;;;;;;5082263;28;20208;-68
2021/04/12 03:38:10;;;;;;;2.07;0.80;;;;;;;;;;5082581;28;20234;-68
2021/04/12 03:40:51;;;;;;;1.13;1.03;;;;;;;;;;5075935;28;20653;-69
2021/04/12 03:43:38;;;;;;;3.37;1.10;;;;;;;;;;5083858;28;20212;-69
2021/04/12 03:46:11;;;;;;;1.97;1.20;;;;;;;;;;5083767;28;20211;-69
2021/04/12 03:48:45;;;;;;;2.60;1.60;;;;;;;;;;5084523;28;20180;-68
2021/04/12 03:51:10;;;;;;;1.93;1.40;;;;;;;;;;5080370;28;20641;-70
2021/04/12 03:53:35;;;;;;;3.50;1.25;;;;;;;;;;5084780;28;20268;-68
2021/04/12 03:56:19;;;;;;;1.60;1.13;;;;;;;;;;5090134;28;20180;-68
2021/04/12 03:58:44;;;;;;;3.50;1.27;;;;;;;;;;5079473;28;20184;-69
2021/04/12 04:01:12;;;;;;;2.00;1.50;;;;;;;;;;5089964;28;20195;-68
2021/04/12 04:03:44;;;;;;;2.23;1.30;;;;;;;;;;5091474;28;20263;-68
2021/04/12 04:06:22;;;;;;;1.90;1.50;;;;;;;;;;5079871;28;20705;-69
2021/04/12 04:09:04;;;;;;;1.50;1.20;;;;;;;;;;5087036;28;20200;-69
2021/04/12 04:11:48;;;;;;;4.40;1.80;;;;;;;;;;5085242;28;20235;-68
2021/04/12 04:14:19;;;;;;;2.00;1.80;;;;;;;;;;5080488;28;20230;-69
2021/04/12 04:17:04;;;;;;;4.27;1.70;;;;;;;;;;5079326;28;20546;-68
2021/04/12 04:19:41;;;;;;;3.50;2.20;;;;;;;;;;5085416;28;20179;-69
2021/04/12 04:22:09;;;;;;;3.30;2.13;;;;;;;;;;5087707;28;20561;-69
2021/04/12 04:24:43;;;;;;;4.53;2.47;;;;;;;;;;5077348;28;20323;-69
2021/04/12 04:27:09;;;;;;;5.57;2.23;;;;;;;;;;5081728;28;20665;-68
2021/04/12 04:29:52;;;;;;;3.90;2.50;;;;;;;;;;5081250;28;20173;-67
2021/04/12 04:32:24;;;;;;;4.63;2.67;;;;;;;;;;5084147;28;20261;-68
2021/04/12 04:35:07;;;;;;;5.53;2.63;;;;;;;;;;5080505;28;20192;-68
2021/04/12 04:37:41;;;;;;;5.30;2.73;;;;;;;;;;5073490;28;20173;-68
2021/04/12 04:40:13;;;;;;;5.10;2.77;;;;;;;;;;5082851;28;20648;-68
2021/04/12 04:42:38;;;;;;;5.67;3.10;;;;;;;;;;5079704;28;20188;-68
2021/04/12 04:45:22;;;;;;;7.00;4.22;;;;;;;;;;5076497;28;20282;-68
2021/04/12 04:47:53;;;;;;;5.03;3.30;;;;;;;;;;5082123;28;20200;-69
2021/04/12 04:50:21;;;;;;;8.77;3.47;;;;;;;;;;5075346;28;21759;-67
2021/04/12 04:53:09;;;;;;;4.57;3.17;;;;;;;;;;5082161;28;20199;-68
2021/04/12 04:55:53;;;;;;;4.07;3.13;;;;;;;;;;5082970;28;20196;-69
2021/04/12 04:58:33;;;;;;;5.87;3.30;;;;;;;;;;5076703;28;20169;-69
2021/04/12 05:01:10;;;;;;;4.50;3.57;;;;;;;;;;5083258;28;20199;-68
2021/04/12 05:03:50;;;;;;;4.37;3.70;;;;;;;;;;5077630;28;20192;-68
2021/04/12 05:06:15;;;;;;;5.20;4.20;;;;;;;;;;5076128;28;20197;-68
2021/04/12 05:09:04;;;;;;;3.97;3.40;;;;;;;;;;5089409;28;20663;-69
2021/04/12 05:11:31;;;;;;;5.30;3.57;;;;;;;;;;5078184;28;20189;-68
2021/04/12 05:14:31;;;;;;;6.83;4.90;;;;;;;;;;5080640;28;20169;-69
2021/04/12 05:17:02;;;;;;;5.23;3.33;;;;;;;;;;5077482;28;20173;-68
2021/04/12 05:19:51;;;;;;;5.10;3.50;;;;;;;;;;5087767;28;20188;-69
2021/04/12 05:22:30;;;;;;;6.87;3.37;;;;;;;;;;5085546;28;20205;-68
2021/04/12 05:25:00;;;;;;;6.60;3.87;;;;;;;;;;5078092;28;20196;-68
2021/04/12 05:27:28;;;;;;;5.30;3.57;;;;;;;;;;5084111;28;20520;-67
2021/04/12 05:30:05;;;;;;;8.17;4.30;;;;;;;;;;5081513;28;20164;-67
2021/04/12 05:32:36;;;;;;;5.87;3.67;;;;;;;;;;5073940;28;20173;-69
2021/04/12 05:35:11;;;;;;;4.70;3.07;;;;;;;;;;5061302;28;555853;-69
2021/04/12 05:37:54;;;;;;;4.53;3.20;;;;;;;;;;5081404;28;20216;-68
2021/04/12 05:40:20;;;;;;;3.73;3.00;;;;;;;;;;5083333;28;20689;-69
2021/04/12 05:42:45;;;;;;;5.60;2.80;;;;;;;;;;5078721;28;20192;-69
2021/04/12 05:45:20;;;;;;;3.47;2.33;;;;;;;;;;5078023;28;20197;-69
2021/04/12 05:47:51;;;;;;;4.60;2.80;;;;;;;;;;5088143;28;20179;-69
2021/04/12 05:50:37;;;;;;;3.67;2.50;;;;;;;;;;5081296;28;20270;-69
2021/04/12 05:53:09;;;;;;;3.73;2.77;;;;;;;;;;5077796;28;20235;-69
2021/04/12 05:55:43;;;;;;;3.83;2.80;;;;;;;;;;5080751;28;20180;-68
2021/04/12 05:58:17;;;;;;;3.90;2.63;;;;;;;;;;5081958;28;20172;-69
2021/04/12 06:00:58;;;;;;;7.30;2.50;;;;;;;;;;5083753;28;21335;-69
2021/04/12 06:03:32;;;;;;;4.87;2.80;;;;;;;;;;5086027;28;20246;-69
2021/04/12 06:06:15;;;;;;;3.47;2.50;;;;;;;;;;5074272;28;20261;-69
2021/04/12 06:08:50;;;;;;;3.53;2.47;;;;;;;;;;5079262;28;20198;-68
2021/04/12 06:11:18;;;;;;;5.43;3.90;;;;;;;;;;5082214;28;20210;-69
2021/04/12 06:13:49;;;;;;;3.83;2.57;;;;;;;;;;5081859;28;20219;-69
2021/04/12 06:16:32;;;;;;;3.80;2.43;;;;;;;;;;5074001;28;20202;-67
2021/04/12 06:19:16;;;;;;;3.57;2.30;;;;;;;;;;5085971;28;20180;-69
2021/04/12 06:21:53;;;;;;;7.83;2.47;;;;;;;;;;5077650;28;20657;-66
2021/04/12 06:24:32;;;;;;;2.40;1.90;;;;;;;;;;5080924;28;20185;-68
2021/04/12 06:27:03;;;;;;;5.27;2.47;;;;;;;;;;5071370;28;20212;-68
2021/04/12 06:29:42;;;;;;;3.37;1.83;;;;;;;;;;5082201;28;20229;-67
2021/04/12 06:32:26;;;;;;;3.17;1.63;;;;;;;;;;5075071;28;20203;-69
2021/04/12 06:35:00;;;;;;;2.67;1.70;;;;;;;;;;5076079;28;20218;-70
2021/04/12 06:37:43;;;;;;;2.70;1.43;;;;;;;;;;5079333;28;20254;-69
2021/04/12 06:40:27;;;;;;;3.60;1.33;;;;;;;;;;5074076;28;20241;-69
2021/04/12 06:42:55;;;;;;;3.27;1.00;;;;;;;;;;5081240;28;20275;-69
2021/04/12 06:45:39;;;;;;;2.53;1.00;;;;;;;;;;5085792;28;20247;-68
2021/04/12 06:48:10;;;;;;;4.13;1.03;;;;;;;;;;5087786;28;20263;-68
2021/04/12 06:50:57;;;;;;;1.77;1.00;;;;;;;;;;5084351;28;20619;-68
2021/04/12 06:53:22;;;;;;;2.03;1.20;;;;;;;;;;5089058;28;20534;-70
2021/04/12 06:55:54;;;;;;;1.85;1.33;;;;;;;;;;5083329;28;20183;-68
2021/04/12 06:58:54;;;;;;;1.40;1.20;;;;;;;;;;5071193;28;20255;-68
2021/04/12 07:01:22;;;;;;;4.13;1.50;;;;;;;;;;5060804;28;20192;-68
2021/04/12 07:03:56;;;;;;;2.37;1.70;;;;;;;;;;5073300;28;20188;-67
2021/04/12 07:06:42;;;;;;;2.47;1.50;;;;;;;;;;5080223;28;20326;-68
2021/04/12 07:09:29;;;;;;;2.70;1.17;;;;;;;;;;5083457;28;20203;-68
2021/04/12 07:11:58;;;;;;;3.43;1.20;;;;;;;;;;5063775;28;20212;-68
2021/04/12 07:14:32;;;;;;;4.53;1.77;;;;;;;;;;5063177;28;20202;-66
2021/04/12 07:17:14;;;;;;;2.50;1.47;;;;;;;;;;5062303;28;20169;-67
2021/04/12 07:19:52;;;;;;;1.80;1.20;;;;;;;;;;5063824;28;20725;-68
2021/04/12 07:22:23;;;;;;;3.97;1.37;;;;;;;;;;5078020;28;20700;-68
2021/04/12 07:25:08;;;;;;;4.90;1.40;;;;;;;;;;5071020;28;20345;-69
2021/04/12 07:27:49;;;;;;;4.20;1.40;;;;;;;;;;5075905;28;20522;-68
2021/04/12 07:30:32;;;;;;;1.87;1.33;;;;;;;;;;5068647;28;20176;-67
2021/04/12 07:33:01;;;;;;;1.83;1.40;;;;;;;;;;5078031;28;20492;-68
2021/04/12 07:35:31;;;;;;;2.27;1.00;;;;;;;;;;5065811;28;20231;-68
2021/04/12 07:38:09;;;;;;;3.43;0.90;;;;;;;;;;5061329;28;20185;-67
2021/04/12 07:40:53;;;;;;;2.43;1.23;;;;;;;;;;5062016;28;20204;-68
2021/04/12 07:43:46;;;;;;;2.53;0.93;;;;;;;;;;5066857;28;20185;-67
2021/04/12 07:46:22;;;;;;;2.00;1.73;;;;;;;;;;5069109;28;20199;-66
2021/04/12 07:49:06;;;;;;;3.47;1.20;;;;;;;;;;5064590;28;20180;-66
2021/04/12 07:51:34;;;;;;;3.43;1.60;;;;;;;;;;5064177;28;20204;-68
2021/04/12 07:53:59;;;;;;;2.27;1.83;;;;;;;;;;5070026;28;20171;-67
2021/04/12 07:56:57;;;;;;;2.17;1.87;;;;;;;;;;5070116;28;20629;-68
2021/04/12 07:59:48;;;;;;;2.23;2.00;;;;;;;;;;5063085;28;20197;-68
2021/04/12 08:02:39;;;;;;;4.13;1.80;;;;;;;;;;5073512;28;20257;-69
2021/04/12 08:05:23;;;;;;;2.40;1.77;;;;;;;;;;5066360;28;20213;-67
2021/04/12 08:08:07;;;;;;;3.37;1.97;;;;;;;;;;5063125;28;20195;-67
2021/04/12 08:10:58;;;;;;;2.97;1.90;;;;;;;;;;5075160;28;20669;-68
2021/04/12 08:13:43;;;;;;;9.90;2.70;;;;;;;;;;5069545;28;20270;-68
2021/04/12 08:16:24;;;;;;;3.53;1.63;;;;;;;;;;5072708;28;20184;-68
2021/04/12 08:18:58;;;;;;;2.13;1.90;;;;;;;;;;5060461;28;20546;-66
2021/04/12 08:21:29;;;;;;;3.17;2.03;;;;;;;;;;5061576;28;20215;-67
2021/04/12 08:24:03;;;;;;;4.97;1.97;;;;;;;;;;5062318;28;20189;-68
2021/04/12 08:26:47;;;;;;;4.60;2.27;;;;;;;;;;5068441;28;20622;-67
2021/04/12 08:29:31;;;;;;;3.83;2.00;;;;;;;;;;5063980;28;20176;-67
2021/04/12 08:32:14;;;;;;;3.83;2.40;;;;;;;;;;5066232;28;20207;-68
2021/04/12 08:34:55;;;;;;;7.97;2.37;;;;;;;;;;5070265;28;20194;-68
2021/04/12 08:37:39;;;;;;;2.97;1.87;;;;;;;;;;5069867;28;20289;-69
2021/04/12 08:40:20;;;;;;;2.83;2.53;;;;;;;;;;5066637;28;20207;-67
2021/04/12 08:42:57;;;;;;;3.07;2.27;;;;;;;;;;5066461;28;20188;-67
2021/04/12 08:45:42;;;;;;;3.10;2.00;;;;;;;;;;5068926;28;20262;-67
2021/04/12 08:48:19;;;;;;;2.30;2.10;;;;;;;;;;5064539;28;20176;-69
2021/04/12 08:50:58;;;;;;;1.97;1.73;;;;;;;;;;5066129;28;20279;-69
2021/04/12 08:53:39;;;;;;;5.33;1.70;;;;;;;;;;5067919;28;20233;-69
2021/04/12 08:56:07;;;;;;;1.90;1.70;;;;;;;;;;5079156;28;20173;-69
2021/04/12 08:58:51;;;;;;;3.20;1.57;;;;;;;;;;5065902;28;20188;-70
2021/04/12 09:01:25;;;;;;;1.53;1.23;;;;;;;;;;5073153;28;20209;-70
2021/04/12 09:03:53;;;;;;;1.70;1.47;;;;;;;;;;5083386;28;20213;-70
2021/04/12 09:06:37;;;;;;;2.30;1.33;;;;;;;;;;5072418;28;20427;-71
2021/04/12 09:09:20;;;;;;;1.70;1.37;;;;;;;;;;5084167;28;20882;-71
2021/04/12 09:11:48;;;;;;;2.37;1.50;;;;;;;;;;5065753;28;20208;-70
2021/04/12 09:14:13;;;;;;;1.60;1.50;;;;;;;;;;5074257;28;20189;-70
2021/04/12 09:16:38;;;;;;;1.88;1.60;;;;;;;;;;5068494;28;20399;-71
2021/04/12 09:19:15;;;;;;;3.67;2.00;;;;;;;;;;5065762;28;20208;-70
2021/04/12 09:21:44;;;;;;;4.60;1.87;;;;;;;;;;5066233;28;20272;-70
2021/04/12 09:24:15;;;;;;;2.67;2.00;;;;;;;;;;5064141;28;20180;-72
2021/04/12 09:26:40;;;;;;;2.10;1.93;;;;;;;;;;5068702;28;20258;-70
2021/04/12 09:29:27;;;;;;;2.35;2.15;;;;;;;;;;5071466;28;20181;-69
2021/04/12 09:32:11;;;;;;;4.77;3.40;;;;;;;;;;5066626;28;20212;-70
2021/04/12 09:34:40;;;;;;;2.90;2.30;;;;;;;;;;5069373;28;20247;-70
2021/04/12 09:37:24;;;;;;;2.97;2.50;;;;;;;;;;5070410;28;20179;-69
2021/04/12 09:40:08;;;;;;;2.93;2.63;;;;;;;;;;5078393;28;20173;-70
2021/04/12 09:42:52;;;;;;;3.60;2.60;;;;;;;;;;5074509;28;20169;-68
2021/04/12 09:45:26;;;;;;;3.63;3.10;;;;;;;;;;5065607;28;20212;-68
2021/04/12 09:48:04;;;;;;;4.23;3.10;;;;;;;;;;5067731;28;20176;-67
2021/04/12 09:50:48;;;;;;;3.53;3.10;;;;;;;;;;5073005;28;20203;-69
2021/04/12 09:53:32;;;;;;;2.80;2.60;;;;;;;;;;5071256;28;20264;-67
2021/04/12 09:56:08;;;;;;;3.73;3.40;;;;;;;;;;5071158;28;20594;-68
2021/04/12 09:58:42;;;;;;;2.80;2.60;;;;;;;;;;5067220;28;20564;-67
2021/04/12 10:01:13;;;;;;;3.50;3.20;;;;;;;;;;5064977;28;20599;-66
2021/04/12 10:03:38;;;;;;;2.77;2.57;;;;;;;;;;5069679;28;20181;-67
2021/04/12 10:06:03;;;;;;;2.80;2.60;;;;;;;;;;5071001;28;20230;-66
2021/04/12 10:08:37;;;;;;;2.92;2.50;;;;;;;;;;5063052;28;20235;-67
2021/04/12 10:11:08;;;;;;;2.57;2.37;;;;;;;;;;5063052;28;20207;-68
2021/04/12 10:13:37;;;;;;;2.33;2.13;;;;;;;;;;5065174;28;20183;-66
2021/04/12 10:16:02;;;;;;;2.63;2.43;;;;;;;;;;5078099;28;20181;-67
2021/04/12 10:18:35;;;;;;;2.37;2.17;;;;;;;;;;5065100;28;20589;-67
2021/04/12 10:21:07;;;;;;;1.90;1.80;;;;;;;;;;5065952;28;20197;-68
2021/04/12 10:23:34;;;;;;;1.70;1.60;;;;;;;;;;5066578;28;20181;-68
2021/04/12 10:26:05;;;;;;;3.17;1.43;;;;;;;;;;5080705;28;20206;-68
2021/04/12 10:28:35;;;;;;;2.00;1.80;;;;;;;;;;5066779;28;20181;-69
2021/04/12 10:31:01;;;;;;;2.30;1.70;;;;;;;;;;5067173;28;20197;-68
2021/04/12 10:33:31;;;;;;;1.80;1.70;;;;;;;;;;5072457;28;20197;-67
2021/04/12 10:36:01;;;;;;;2.13;1.90;;;;;;;;;;5068898;28;20195;-68
2021/04/12 10:38:26;;;;;;;2.60;1.47;;;;;;;;;;5065006;28;20296;-67
2021/04/12 10:40:57;;;;;;;1.57;1.47;;;;;;;;;;5066413;28;20292;-67
2021/04/12 10:43:31;;;;;;;2.53;1.27;;;;;;;;;;5068161;28;20440;-68
2021/04/12 10:46:04;;;;;;;2.77;1.20;;;;;;;;;;5066265;28;20235;-68
2021/04/12 10:48:29;;;;;;;1.37;1.27;;;;;;;;;;5065282;28;20192;-67
2021/04/12 10:51:00;;;;;;;1.77;1.33;;;;;;;;;;5072313;28;20192;-68
2021/04/12 10:53:32;;;;;;;2.53;1.10;;;;;;;;;;5063935;28;20740;-67
2021/04/12 10:55:57;;;;;;;1.57;1.37;;;;;;;;;;5065245;28;20180;-67
2021/04/12 10:58:32;;;;;;;1.90;1.20;;;;;;;;;;5063049;28;20188;-67
2021/04/12 11:01:08;;;;;;;1.87;1.20;;;;;;;;;;5062458;28;20210;-66
2021/04/12 11:03:39;;;;;;;2.40;1.47;;;;;;;;;;5069377;28;20684;-66
2021/04/12 11:06:11;;;;;;;2.50;1.47;;;;;;;;;;5065464;28;20209;-67
2021/04/12 11:08:46;;;;;;;2.13;1.50;;;;;;;;;;5066055;28;20168;-68
2021/04/12 11:11:18;;;;;;;5.10;1.37;;;;;;;;;;5062778;28;20196;-67
2021/04/12 11:13:47;;;;;;;2.27;1.40;;;;;;;;;;5066678;28;20165;-68
2021/04/12 11:16:15;;;;;;;3.00;1.80;;;;;;;;;;5069281;28;20216;-65
2021/04/12 11:18:59;;;;;;;3.33;1.47;;;;;;;;;;5069567;28;20184;-66
2021/04/12 11:21:35;;;;;;;2.17;1.27;;;;;;;;;;5065961;28;20212;-64
2021/04/12 11:24:07;;;;;;;3.60;1.60;;;;;;;;;;5063306;28;20260;-65
2021/04/12 11:26:35;;;;;;;2.03;1.17;;;;;;;;;;5069369;28;20369;-66
2021/04/12 11:29:15;;;;;;;1.57;1.40;;;;;;;;;;5068233;28;20701;-67
2021/04/12 11:31:51;;;;;;;1.60;1.50;;;;;;;;;;5067271;28;20195;-67
2021/04/12 11:34:29;;;;;;;3.40;1.70;;;;;;;;;;5063781;28;21487;-65
2021/04/12 11:37:00;;;;;;;5.07;1.80;;;;;;;;;;5080500;28;20175;-67
2021/04/12 11:39:30;;;;;;;4.03;1.70;;;;;;;;;;5062681;28;20259;-64
2021/04/12 11:42:04;;;;;;;2.40;1.30;;;;;;;;;;5065755;28;20569;-64
2021/04/12 11:44:33;;;;;;;2.20;1.57;;;;;;;;;;5064712;28;20196;-67
2021/04/12 11:47:01;;;;;;;2.60;1.90;;;;;;;;;;5068859;28;20192;-67
2021/04/12 11:49:35;;;;;;;4.10;1.57;;;;;;;;;;5082661;28;20172;-67
2021/04/12 11:52:12;;;;;;;2.27;1.50;;;;;;;;;;5072138;28;20192;-67
2021/04/12 11:54:52;;;;;;;2.90;1.53;;;;;;;;;;5078865;28;20233;-68
2021/04/12 11:57:40;;;;;;;2.40;2.00;;;;;;;;;;5069010;28;20176;-67
2021/04/12 12:00:18;;;;;;;2.80;1.30;;;;;;;;;;5068903;28;20193;-64
2021/04/12 12:02:57;;;;;;;1.97;1.40;;;;;;;;;;5068927;28;20672;-69
2021/04/12 12:05:22;;;;;;;2.53;1.20;;;;;;;;;;5072696;28;20678;-64
2021/04/12 12:07:57;;;;;;;2.47;1.30;;;;;;;;;;5078619;28;20229;-69
2021/04/12 12:10:41;;;;;;;1.87;0.97;;;;;;;;;;5088585;28;20616;-66
2021/04/12 12:13:25;;;;;;;1.73;1.30;;;;;;;;;;5070245;28;20256;-66
2021/04/12 12:15:59;;;;;;;1.60;1.33;;;;;;;;;;5072675;28;20187;-66
2021/04/12 12:18:29;;;;;;;3.50;1.90;;;;;;;;;;5069065;28;20680;-67
2021/04/12 12:21:13;;;;;;;2.50;1.30;;;;;;;;;;5077992;28;20205;-67
2021/04/12 12:23:42;;;;;;;1.33;1.20;;;;;;;;;;5064663;28;20237;-67
2021/04/12 12:26:24;;;;;;;1.43;1.07;;;;;;;;;;5071273;28;20220;-67
2021/04/12 12:29:27;;;;;;;2.53;0.97;;;;;;;;;;5079961;28;20900;-67
2021/04/12 12:31:59;;;;;;;3.47;1.40;;;;;;;;;;5071047;28;20199;-66
2021/04/12 12:34:28;;;;;;;1.70;1.13;;;;;;;;;;5067662;28;20184;-66
2021/04/12 12:37:02;;;;;;;3.73;1.27;;;;;;;;;;5071225;28;20586;-67
2021/04/12 12:39:30;;;;;;;2.23;1.40;;;;;;;;;;5087342;28;20646;-67
2021/04/12 12:41:59;;;;;;;2.57;1.70;;;;;;;;;;5075204;28;20196;-66
2021/04/12 12:44:26;;;;;;;1.83;1.10;;;;;;;;;;5072045;28;20177;-67
2021/04/12 12:46:53;;;;;;;2.27;1.23;;;;;;;;;;5073227;28;20276;-68
2021/04/12 12:49:25;;;;;;;2.97;2.47;;;;;;;;;;5087483;28;20237;-65
2021/04/12 12:51:52;;;;;;;3.77;2.20;;;;;;;;;;5077003;28;20673;-67
2021/04/12 12:54:20;;;;;;;2.87;1.87;;;;;;;;;;5067732;28;20763;-68
2021/04/12 12:56:46;;;;;;;2.40;1.23;;;;;;;;;;5083555;28;20226;-68
2021/04/12 12:59:25;;;;;;;1.83;1.33;;;;;;;;;;5074275;28;20185;-67
2021/04/12 13:01:50;;;;;;;4.00;2.17;;;;;;;;;;5072917;28;20200;-67
2021/04/12 13:04:18;;;;;;;1.97;1.20;;;;;;;;;;5069881;28;20188;-68
2021/04/12 13:06:44;;;;;;;2.20;1.23;;;;;;;;;;5072199;28;20212;-67
2021/04/12 13:09:13;;;;;;;2.90;1.87;;;;;;;;;;5086434;28;20176;-68
2021/04/12 13:11:44;;;;;;;3.37;1.87;;;;;;;;;;5071350;28;20201;-67
2021/04/12 13:14:09;;;;;;;5.67;1.80;;;;;;;;;;5067760;28;20190;-68
2021/04/12 13:16:34;;;;;;;9.47;1.80;;;;;;;;;;5065646;28;20611;-66
2021/04/12 13:19:02;;;;;;;2.67;1.53;;;;;;;;;;5065858;28;20443;-67
2021/04/12 13:21:39;;;;;;;3.47;1.43;;;;;;;;;;5063766;28;20678;-66
2021/04/12 13:24:15;;;;;;;2.60;1.00;;;;;;;;;;5066642;28;20286;-68
2021/04/12 13:26:42;;;;;;;3.03;1.10;;;;;;;;;;5064445;28;20243;-66
2021/04/12 13:29:16;;;;;;;1.90;1.10;;;;;;;;;;5079714;28;20185;-68
2021/04/12 13:31:48;;;;;;;0.93;0.80;;;;;;;;;;5067581;28;20654;-68
2021/04/12 13:34:16;;;;;;;2.30;0.93;;;;;;;;;;5070672;28;20185;-66
2021/04/12 13:36:44;;;;;;;1.00;0.73;;;;;;;;;;5071076;28;20191;-67
2021/04/12 13:39:14;;;;;;;2.83;1.07;;;;;;;;;;5075899;28;20176;-67
2021/04/12 13:41:45;;;;;;;1.37;1.17;;;;;;;;;;5075056;28;20204;-67
2021/04/12 13:44:12;;;;;;;2.17;0.87;;;;;;;;;;5075717;28;20255;-66
2021/04/12 13:46:53;;;;;;;1.40;1.03;;;;;;;;;;5066484;28;20205;-67
2021/04/12 13:49:22;;;;;;;3.80;2.10;;;;;;;;;;5072028;28;20192;-67
2021/04/12 13:51:51;;;;;;;3.50;1.40;;;;;;;;;;5063543;28;20200;-66
2021/04/12 13:54:26;;;;;;;1.43;1.10;;;;;;;;;;5065172;28;20906;-67
2021/04/12 13:56:57;;;;;;;3.37;1.60;;;;;;;;;;5065282;28;20184;-67
2021/04/12 13:59:31;;;;;;;3.37;1.60;;;;;;;;;;5074331;28;20608;-67
2021/04/12 14:01:56;;;;;;;2.13;1.40;;;;;;;;;;5077178;28;20280;-66
2021/04/12 14:04:22;;;;;;;3.60;1.40;;;;;;;;;;5071660;28;20283;-67
2021/04/12 14:07:02;;;;;;;3.70;1.93;;;;;;;;;;5069595;28;20264;-66
2021/04/12 14:09:27;;;;;;;3.30;1.63;;;;;;;;;;5063557;28;20383;-67
2021/04/12 14:11:54;;;;;;;3.53;1.77;;;;;;;;;;5066900;28;20703;-66
2021/04/12 14:14:19;;;;;;;2.27;2.07;;;;;;;;;;5066641;28;20429;-67
2021/04/12 14:16:45;;;;;;;2.47;1.70;;;;;;;;;;5074412;28;20549;-65
2021/04/12 14:19:21;;;;;;;2.10;1.80;;;;;;;;;;5065530;28;22084;-66
2021/04/12 14:21:47;;;;;;;3.77;2.03;;;;;;;;;;5064902;28;20204;-65
2021/04/12 14:24:21;;;;;;;3.10;1.57;;;;;;;;;;5064960;28;20183;-66
2021/04/12 14:26:48;;;;;;;5.30;1.53;;;;;;;;;;5064572;28;20208;-67
2021/04/12 14:29:39;;;;;;;1.40;1.30;;;;;;;;;;5068845;28;20176;-66
2021/04/12 14:32:31;;;;;;;2.50;1.87;;;;;;;;;;5072614;28;20225;-66
2021/04/12 14:34:56;;;;;;;1.77;1.50;;;;;;;;;;5063795;28;20215;-66
2021/04/12 14:37:24;;;;;;;2.93;1.57;;;;;;;;;;5064602;28;20540;-67
2021/04/12 14:39:49;;;;;;;2.90;1.23;;;;;;;;;;5074293;28;20177;-66
2021/04/12 14:42:18;;;;;;;2.00;1.73;;;;;;;;;;5069855;28;20709;-67
2021/04/12 14:44:47;;;;;;;2.03;1.50;;;;;;;;;;5068960;28;20292;-67
2021/04/12 14:47:12;;;;;;;4.43;1.93;;;;;;;;;;5070188;28;20260;-67
2021/04/12 14:49:42;;;;;;;3.47;1.40;;;;;;;;;;5066621;28;20639;-68
2021/04/12 14:52:26;;;;;;;5.23;1.50;;;;;;;;;;5070256;28;20318;-68
2021/04/12 14:54:52;;;;;;;4.67;1.90;;;;;;;;;;5063521;28;20720;-67
2021/04/12 14:57:19;;;;;;;3.23;1.70;;;;;;;;;;5066951;28;20189;-68
2021/04/12 15:00:06;;;;;;;3.47;1.27;;;;;;;;;;5064280;28;20556;-66
2021/04/12 15:02:37;;;;;;;3.37;1.70;;;;;;;;;;5067612;28;20317;-68
2021/04/12 15:05:07;;;;;;;2.77;1.20;;;;;;;;;;5067669;28;20230;-68
2021/04/12 15:07:41;;;;;;;2.60;1.30;;;;;;;;;;5065810;28;20586;-67
2021/04/12 15:10:09;;;;;;;3.97;1.40;;;;;;;;;;5078660;28;20225;-66
2021/04/12 15:12:34;;;;;;;2.30;1.20;;;;;;;;;;5066134;28;20241;-68
2021/04/12 15:15:03;;;;;;;1.57;1.30;;;;;;;;;;5065455;28;21928;-67
2021/04/12 15:17:31;;;;;;;3.37;1.30;;;;;;;;;;5070448;28;20190;-66
2021/04/12 15:20:03;;;;;;;3.13;1.03;;;;;;;;;;5063160;28;20666;-68
2021/04/12 15:22:33;;;;;;;3.00;1.23;;;;;;;;;;5060479;28;20180;-67
2021/04/12 15:25:22;;;;;;;2.17;1.47;;;;;;;;;;5063552;28;20250;-65
2021/04/12 15:27:55;;;;;;;2.47;1.60;;;;;;;;;;5063856;28;20188;-68
2021/04/12 15:30:20;;;;;;;3.13;2.30;;;;;;;;;;5066088;28;20207;-66